Main page
METAR-TAF:

METAR-TAF

Airports :

Craiova International Airport

Craiova, Romania

latitude: 44-14N, longitude: 023-52E, elevation: 192 m

Current weather observation

The report was made 16 minutes ago, at 04:30 UTC
Wind 5 kt from the East/Northeast
Temperature 4°C
Humidity 81%
Pressure 1003 hPa
Visibility 10 km or more
no clouds below 1500 m and no cumulonimbus

METAR: LRCV 030430Z 06005KT CAVOK 04/01 Q1003

Time: 06:46 (04:46 UTC)

Forecast

The report was made 2 hours and 46 minutes ago, at 02:00 UTC
Forecast valid from 03 at 03 UTC to 03 at 12 UTC
Wind 7 kt from the East/Northeast
Visibility 10 km or more
no clouds below 1500 m and no cumulonimbus

TAF: LRCV 030200Z 0303/0312 06007KT CAVOK

Weather observations and forecasts of more than 4000 airports (METAR and TAF reports).

The available stations are represented by yellow and red dots on the map.

Hover mouse over dot to see the name of the station.

Then click to see weather observations and forecasts.

To change the map : click on the green buttons with a black cross to zoom in, on the green button with a dash to zoom out, or on the green arrows for adjacent maps.


METAR-TAF: